createdAt,value
2019-01-19T00:01:02.842Z,3.03
2019-01-19T00:05:10.593Z,3.06
2019-01-19T00:08:24.180Z,3.12
2019-01-19T00:11:49.594Z,3.17
2019-01-19T00:14:40.279Z,3.20
2019-01-19T00:18:31.395Z,3.18
2019-01-19T00:21:38.424Z,3.17
2019-01-19T00:24:57.314Z,3.10
2019-01-19T00:28:19.921Z,3.07
2019-01-19T00:31:19.124Z,3.04
2019-01-19T00:34:48.221Z,3.01
2019-01-19T00:37:48.729Z,3.03
2019-01-19T00:41:16.512Z,3.07
2019-01-19T00:44:22.930Z,3.11
2019-01-19T00:47:53.389Z,3.11
2019-01-19T00:51:39.544Z,3.11
2019-01-19T00:54:38.207Z,3.10
2019-01-19T00:58:05.970Z,3.08
2019-01-19T01:00:55.480Z,3.08
2019-01-19T01:04:17.722Z,3.03
2019-01-19T01:07:59.052Z,2.97
2019-01-19T01:10:49.793Z,2.91
2019-01-19T01:14:35.920Z,2.84
2019-01-19T01:17:49.391Z,2.78
2019-01-19T01:20:49.013Z,2.69
2019-01-19T01:24:16.280Z,2.61
2019-01-19T01:27:21.048Z,2.59
2019-01-19T01:30:34.379Z,2.59
2019-01-19T01:33:50.821Z,2.59
2019-01-19T01:37:28.021Z,2.59
2019-01-19T01:40:49.360Z,2.62
2019-01-19T01:44:14.028Z,2.65
2019-01-19T01:47:54.041Z,2.68
2019-01-19T01:50:45.629Z,2.69
2019-01-19T01:54:04.412Z,2.68
2019-01-19T01:56:37.798Z,2.70
2019-01-19T02:00:08.743Z,2.69
2019-01-19T02:03:34.426Z,2.69
2019-01-19T02:07:24.570Z,2.67
2019-01-19T02:10:49.833Z,2.64
2019-01-19T02:13:47.198Z,2.55
2019-01-19T02:17:17.442Z,2.50
2019-01-19T02:20:32.839Z,2.46
2019-01-19T02:23:43.773Z,2.37
2019-01-19T02:27:43.305Z,2.30
2019-01-19T02:31:17.688Z,2.28
2019-01-19T02:34:43.360Z,2.26
2019-01-19T02:38:09.475Z,2.22
2019-01-19T02:41:22.486Z,2.19
2019-01-19T02:44:53.591Z,2.17
2019-01-19T02:48:18.193Z,2.12
2019-01-19T02:51:19.987Z,2.03
2019-01-19T02:55:09.987Z,1.94
2019-01-19T02:59:00.580Z,1.87
2019-01-19T03:02:02.857Z,1.80
2019-01-19T03:05:08.793Z,1.76
2019-01-19T03:08:11.262Z,1.73
2019-01-19T03:11:43.842Z,1.72
2019-01-19T03:15:27.419Z,1.70
2019-01-19T03:18:51.238Z,1.65
2019-01-19T03:22:13.960Z,1.62
2019-01-19T03:25:29.255Z,1.63
2019-01-19T03:28:55.148Z,1.64
2019-01-19T03:32:15.002Z,1.64
2019-01-19T03:35:34.192Z,1.66
2019-01-19T03:38:42.300Z,1.70
2019-01-19T03:42:07.474Z,1.75
2019-01-19T03:45:04.228Z,1.80
2019-01-19T03:48:07.953Z,1.84
2019-01-19T03:51:27.520Z,1.87
2019-01-19T03:54:56.030Z,1.83
2019-01-19T03:57:52.567Z,1.78
2019-01-19T04:01:11.265Z,1.73
2019-01-19T04:04:18.946Z,1.69
2019-01-19T04:07:16.660Z,1.65
2019-01-19T04:10:52.678Z,1.63
2019-01-19T04:14:18.678Z,1.60
2019-01-19T04:17:52.601Z,1.55
2019-01-19T04:21:14.940Z,1.56
2019-01-19T04:23:53.973Z,1.62
2019-01-19T04:26:44.785Z,1.67
2019-01-19T04:29:16.410Z,1.73
2019-01-19T04:31:48.054Z,1.76
2019-01-19T04:34:20.042Z,1.77
2019-01-19T04:36:52.032Z,1.76
2019-01-19T04:39:23.652Z,1.74
2019-01-19T04:41:55.715Z,1.70
2019-01-19T04:44:27.334Z,1.65
2019-01-19T04:46:58.975Z,1.62
2019-01-19T04:49:30.565Z,1.60
2019-01-19T04:52:02.270Z,1.59
2019-01-19T04:54:33.973Z,1.65
2019-01-19T04:57:06.177Z,1.71
2019-01-19T04:59:38.870Z,1.76
2019-01-19T05:02:10.596Z,1.80
2019-01-19T05:04:42.208Z,1.84
2019-01-19T05:07:13.810Z,1.86
2019-01-19T05:09:45.455Z,1.90
2019-01-19T05:12:17.872Z,1.91
2019-01-19T05:14:49.491Z,1.94
2019-01-19T05:17:21.124Z,1.96
2019-01-19T05:19:52.786Z,1.97
2019-01-19T05:22:25.607Z,1.96
2019-01-19T05:24:57.467Z,1.95
2019-01-19T05:27:31.502Z,1.94
2019-01-19T05:30:03.129Z,1.94
2019-01-19T05:32:34.995Z,1.95
2019-01-19T05:35:27.190Z,1.96
2019-01-19T05:37:58.837Z,1.96
2019-01-19T05:40:30.466Z,1.94
2019-01-19T05:43:02.754Z,1.91
2019-01-19T05:45:33.429Z,1.89
2019-01-19T05:48:02.676Z,1.86
2019-01-19T05:50:34.411Z,1.82
2019-01-19T05:53:06.230Z,1.80
2019-01-19T05:55:41.272Z,1.76
2019-01-19T05:58:12.896Z,1.69
2019-01-19T06:00:45.126Z,1.65
2019-01-19T06:03:16.743Z,1.61
2019-01-19T06:05:49.060Z,1.61
2019-01-19T06:08:20.669Z,1.61
2019-01-19T06:10:52.283Z,1.61
2019-01-19T06:13:23.905Z,1.59
2019-01-19T06:15:56.001Z,1.60
2019-01-19T06:18:29.195Z,1.60
2019-01-19T06:21:01.034Z,1.56
2019-01-19T06:23:32.731Z,1.53
2019-01-19T06:26:04.435Z,1.47
2019-01-19T06:28:37.069Z,1.41
2019-01-19T06:31:09.116Z,1.37
2019-01-19T06:33:40.819Z,1.32
2019-01-19T06:36:13.178Z,1.30
2019-01-19T06:38:44.830Z,1.30
2019-01-19T06:41:16.503Z,1.30
2019-01-19T06:43:48.147Z,1.31
2019-01-19T06:46:20.464Z,1.27
2019-01-19T06:48:54.918Z,1.22
2019-01-19T06:51:31.366Z,1.18
2019-01-19T06:54:03.251Z,1.15
2019-01-19T06:56:34.920Z,1.12
2019-01-19T06:59:09.021Z,1.15
2019-01-19T07:01:40.729Z,1.16
2019-01-19T07:04:13.077Z,1.19
2019-01-19T07:06:46.551Z,1.23
2019-01-19T07:09:18.290Z,1.24
2019-01-19T07:11:50.220Z,1.25
2019-01-19T07:14:22.439Z,1.25
2019-01-19T07:16:55.529Z,1.26
2019-01-19T07:19:27.879Z,1.23
2019-01-19T07:21:59.534Z,1.20
2019-01-19T07:24:32.651Z,1.15
2019-01-19T07:27:15.613Z,1.10
2019-01-19T07:29:48.438Z,1.04
2019-01-19T07:32:20.134Z,1.01
2019-01-19T07:34:52.262Z,1.00
2019-01-19T07:37:23.922Z,1.00
2019-01-19T07:39:55.548Z,1.00
2019-01-19T07:42:27.162Z,0.99
2019-01-19T07:44:58.843Z,0.97
2019-01-19T07:47:31.139Z,0.94
2019-01-19T07:50:05.256Z,0.90
2019-01-19T07:52:36.952Z,0.86
2019-01-19T07:55:11.090Z,0.83
2019-01-19T07:57:42.934Z,0.82
2019-01-19T08:00:28.118Z,0.80
2019-01-19T08:02:59.838Z,0.79
2019-01-19T08:05:32.405Z,0.78
2019-01-19T08:08:04.043Z,0.80
2019-01-19T08:10:36.105Z,0.80
2019-01-19T08:13:07.900Z,0.81
2019-01-19T08:15:39.662Z,0.84
2019-01-19T08:18:11.728Z,0.88
2019-01-19T08:20:44.798Z,0.92
2019-01-19T08:23:17.441Z,0.94
2019-01-19T08:25:49.207Z,0.96
2019-01-19T08:28:20.875Z,1.00
2019-01-19T08:30:52.666Z,1.07
2019-01-19T08:33:24.475Z,1.12
2019-01-19T08:35:56.978Z,1.18
2019-01-19T08:38:28.630Z,1.25
2019-01-19T08:41:00.426Z,1.33
2019-01-19T08:43:37.821Z,1.41
2019-01-19T08:46:09.779Z,1.54
2019-01-19T08:48:41.579Z,1.64
2019-01-19T08:51:32.457Z,1.74
2019-01-19T08:54:12.457Z,1.82
2019-01-19T08:56:54.965Z,1.93
2019-01-19T08:59:45.258Z,2.02
2019-01-19T09:02:27.114Z,2.12
2019-01-19T09:05:19.148Z,2.25
2019-01-19T09:07:58.623Z,2.35
2019-01-19T09:10:34.800Z,2.43
2019-01-19T09:13:06.771Z,2.53
2019-01-19T09:15:39.293Z,2.59
2019-01-19T09:18:17.470Z,2.62
2019-01-19T09:20:54.992Z,2.67
2019-01-19T09:23:34.607Z,2.73
2019-01-19T09:26:06.706Z,2.79
2019-01-19T09:28:38.440Z,2.85
2019-01-19T09:31:10.405Z,2.90
2019-01-19T09:33:42.246Z,2.97
2019-01-19T09:36:14.040Z,3.06
2019-01-19T09:38:46.382Z,3.12
2019-01-19T09:41:18.081Z,3.18
2019-01-19T09:43:50.191Z,3.22
2019-01-19T09:46:22.859Z,3.25
2019-01-19T09:48:54.760Z,3.32
2019-01-19T09:51:26.808Z,3.40
2019-01-19T09:53:59.495Z,3.49
2019-01-19T09:56:31.295Z,3.53
2019-01-19T09:59:03.597Z,3.58
2019-01-19T10:01:35.385Z,3.64
2019-01-19T10:04:07.304Z,3.70
2019-01-19T10:06:39.486Z,3.77
2019-01-19T10:09:11.895Z,3.82
2019-01-19T10:11:43.647Z,3.85
2019-01-19T10:14:15.323Z,3.87
2019-01-19T10:16:47.044Z,3.86
2019-01-19T10:19:18.948Z,3.87
2019-01-19T10:21:50.631Z,3.89
2019-01-19T10:24:32.568Z,3.94
2019-01-19T10:27:04.346Z,3.97
2019-01-19T10:29:36.202Z,4.00
2019-01-19T10:32:07.850Z,4.03
2019-01-19T10:34:39.725Z,4.07
2019-01-19T10:37:11.465Z,4.11
2019-01-19T10:39:43.834Z,4.16
2019-01-19T10:42:15.603Z,4.18
2019-01-19T10:44:47.334Z,4.21
2019-01-19T10:47:18.963Z,4.22
2019-01-19T10:49:50.706Z,4.23
2019-01-19T10:52:22.428Z,4.24
2019-01-19T10:54:54.065Z,4.28
2019-01-19T10:57:27.189Z,4.33
2019-01-19T10:59:59.055Z,4.37
2019-01-19T11:02:30.785Z,4.41
2019-01-19T11:05:02.749Z,4.43
2019-01-19T11:07:34.884Z,4.47
2019-01-19T11:10:10.074Z,4.49
2019-01-19T11:12:42.440Z,4.48
2019-01-19T11:15:16.008Z,4.47
2019-01-19T11:17:47.738Z,4.49
2019-01-19T11:20:25.706Z,4.52
2019-01-19T11:22:58.785Z,4.56
2019-01-19T11:25:30.576Z,4.59
2019-01-19T11:28:03.128Z,4.60
2019-01-19T11:30:34.859Z,4.63
2019-01-19T11:33:06.848Z,4.66
2019-01-19T11:35:38.550Z,4.67
2019-01-19T11:38:11.974Z,4.68
2019-01-19T11:40:43.650Z,4.68
2019-01-19T11:43:16.055Z,4.69
2019-01-19T11:45:47.720Z,4.72
2019-01-19T11:48:19.377Z,4.76
2019-01-19T11:50:51.032Z,4.76
2019-01-19T11:53:23.005Z,4.76
2019-01-19T11:55:54.664Z,4.80
2019-01-19T11:58:28.684Z,4.83
2019-01-19T12:01:00.476Z,4.82
2019-01-19T12:03:32.252Z,4.83
2019-01-19T12:06:04.559Z,4.86
2019-01-19T12:08:36.766Z,4.88
2019-01-19T12:11:08.513Z,4.84
2019-01-19T12:13:40.882Z,4.82
2019-01-19T12:16:14.038Z,4.80
2019-01-19T12:18:45.786Z,4.81
2019-01-19T12:21:17.466Z,4.88
2019-01-19T12:23:49.257Z,4.98
2019-01-19T12:26:21.111Z,5.05
2019-01-19T12:28:53.911Z,5.11
2019-01-19T12:31:25.864Z,5.14
2019-01-19T12:33:57.647Z,5.13
2019-01-19T12:36:29.631Z,5.13
2019-01-19T12:39:01.299Z,5.10
2019-01-19T12:41:33.010Z,5.08
2019-01-19T12:44:05.039Z,5.06
2019-01-19T12:46:37.352Z,5.03
2019-01-19T12:49:09.155Z,5.02
2019-01-19T12:51:49.138Z,5.03
2019-01-19T12:54:23.017Z,5.02
2019-01-19T12:57:01.744Z,4.97
2019-01-19T12:59:35.149Z,4.96
2019-01-19T13:02:09.808Z,4.95
2019-01-19T13:04:43.189Z,4.94
2019-01-19T13:07:21.791Z,4.93
2019-01-19T13:10:13.736Z,4.96
2019-01-19T13:13:15.363Z,4.94
2019-01-19T13:16:41.291Z,4.92
2019-01-19T13:19:56.626Z,4.93
2019-01-19T13:23:16.168Z,4.90
2019-01-19T13:26:58.465Z,4.86
2019-01-19T13:30:35.395Z,4.79
2019-01-19T13:33:51.044Z,4.63
2019-01-19T13:37:05.348Z,4.53
2019-01-19T13:40:37.306Z,4.48
2019-01-19T13:44:13.500Z,4.45
2019-01-19T13:48:16.138Z,4.43
2019-01-19T13:51:44.999Z,4.43
2019-01-19T13:55:41.032Z,4.40
2019-01-19T13:58:57.716Z,4.34
2019-01-19T14:02:29.594Z,4.24
2019-01-19T14:05:55.047Z,4.19
2019-01-19T14:09:13.293Z,4.13
2019-01-19T14:12:40.181Z,4.14
2019-01-19T14:15:47.304Z,4.12
2019-01-19T14:19:02.923Z,4.08
2019-01-19T14:22:38.135Z,4.08
2019-01-19T14:26:36.422Z,4.12
2019-01-19T14:30:11.414Z,4.11
2019-01-19T14:33:41.784Z,4.05
2019-01-19T14:37:18.416Z,4.01
2019-01-19T14:40:35.789Z,3.97
2019-01-19T14:44:00.777Z,3.94
2019-01-19T14:47:16.890Z,3.88
2019-01-19T14:50:44.297Z,3.83
2019-01-19T14:54:45.575Z,3.77
2019-01-19T14:57:37.416Z,3.71
2019-01-19T15:01:16.853Z,3.67
2019-01-19T15:04:52.033Z,3.65
2019-01-19T15:08:05.970Z,3.59
2019-01-19T15:11:31.172Z,3.59
2019-01-19T15:15:32.970Z,3.61
2019-01-19T15:19:08.629Z,3.62
2019-01-19T15:22:21.628Z,3.61
2019-01-19T15:25:48.718Z,3.59
2019-01-19T15:29:29.030Z,3.59
2019-01-19T15:32:43.214Z,3.58
2019-01-19T15:36:23.050Z,3.59
2019-01-19T15:40:02.257Z,3.56
2019-01-19T15:43:05.883Z,3.51
2019-01-19T15:46:29.896Z,3.45
2019-01-19T15:49:56.806Z,3.41
2019-01-19T15:54:05.019Z,3.39
2019-01-19T15:57:22.964Z,3.35
2019-01-19T16:00:34.223Z,3.31
2019-01-19T16:04:04.419Z,3.27
2019-01-19T16:07:44.837Z,3.26
2019-01-19T16:11:03.916Z,3.24
2019-01-19T16:14:30.090Z,3.26
2019-01-19T16:17:50.516Z,3.27
2019-01-19T16:22:05.173Z,3.28
2019-01-19T16:25:26.157Z,3.25
2019-01-19T16:28:46.685Z,3.18
2019-01-19T16:32:14.707Z,3.12
2019-01-19T16:35:38.843Z,3.08
2019-01-19T16:39:11.745Z,3.08
2019-01-19T16:42:41.390Z,3.12
2019-01-19T16:46:15.805Z,3.15
2019-01-19T16:49:58.651Z,3.18
2019-01-19T16:53:28.964Z,3.15
2019-01-19T16:57:02.038Z,3.11
2019-01-19T17:00:33.845Z,3.05
2019-01-19T17:04:01.597Z,3.03
2019-01-19T17:07:11.356Z,3.02
2019-01-19T17:10:19.741Z,2.99
2019-01-19T17:13:38.337Z,2.98
2019-01-19T17:17:18.845Z,2.98
2019-01-19T17:20:24.167Z,2.99
2019-01-19T17:23:31.259Z,3.01
2019-01-19T17:27:13.614Z,2.96
2019-01-19T17:34:52.325Z,2.92
2019-01-19T17:37:46.876Z,2.89
2019-01-19T17:41:18.156Z,2.85
2019-01-19T17:44:22.145Z,2.81
2019-01-19T17:47:41.098Z,2.76
2019-01-19T17:50:54.809Z,2.72
2019-01-19T17:54:23.615Z,2.69
2019-01-19T17:57:39.022Z,2.67
2019-01-19T18:01:11.181Z,2.64
2019-01-19T18:04:21.908Z,2.61
2019-01-19T18:08:19.734Z,2.58
2019-01-19T18:11:58.581Z,2.56
2019-01-19T18:15:54.975Z,2.50
2019-01-19T18:19:15.271Z,2.48
2019-01-19T18:22:56.059Z,2.43
2019-01-19T18:26:43.691Z,2.37
2019-01-19T18:30:10.803Z,2.34
2019-01-19T18:33:52.852Z,2.32
2019-01-19T18:37:05.399Z,2.33
2019-01-19T18:40:23.798Z,2.30
2019-01-19T18:43:36.888Z,2.30
2019-01-19T18:47:42.690Z,2.27
2019-01-19T18:51:26.747Z,2.25
2019-01-19T18:55:10.422Z,2.22
2019-01-19T18:58:54.531Z,2.21
2019-01-19T19:02:22.382Z,2.19
2019-01-19T19:06:10.233Z,2.17
2019-01-19T19:09:32.676Z,2.13
2019-01-19T19:12:52.149Z,2.13
2019-01-19T19:16:21.255Z,2.12
2019-01-19T19:19:53.619Z,2.14
2019-01-19T19:23:51.676Z,2.14
2019-01-19T19:27:21.385Z,2.15
2019-01-19T19:30:40.653Z,2.13
2019-01-19T19:33:48.874Z,2.13
2019-01-19T19:36:52.377Z,2.12
2019-01-19T19:40:09.690Z,2.11
2019-01-19T19:43:08.954Z,2.11
2019-01-19T19:46:52.055Z,2.10
2019-01-19T19:50:32.835Z,2.11
2019-01-19T19:53:04.717Z,2.09
2019-01-19T19:55:34.483Z,2.05
2019-01-19T19:58:06.517Z,2.04
2019-01-19T20:00:38.661Z,2.02
2019-01-19T20:03:11.629Z,2.00
2019-01-19T20:05:43.448Z,1.99
2019-01-19T20:08:16.908Z,1.99
2019-01-19T20:10:48.794Z,1.99
2019-01-19T20:13:20.979Z,1.97
2019-01-19T20:15:52.801Z,1.96
2019-01-19T20:18:24.817Z,1.94
2019-01-19T20:20:56.596Z,1.91
2019-01-19T20:23:28.408Z,1.89
2019-01-19T20:26:01.222Z,1.86
2019-01-19T20:28:33.589Z,1.84
2019-01-19T20:31:05.640Z,1.83
2019-01-19T20:33:37.424Z,1.81
2019-01-19T20:36:12.232Z,1.79
2019-01-19T20:38:44.574Z,1.78
2019-01-19T20:41:16.363Z,1.76
2019-01-19T20:43:49.178Z,1.72
2019-01-19T20:46:20.990Z,1.72
2019-01-19T20:48:52.936Z,1.68
2019-01-19T20:51:25.245Z,1.68
2019-01-19T20:53:57.376Z,1.63
2019-01-19T20:56:29.583Z,1.61
2019-01-19T20:59:02.454Z,1.60
2019-01-19T21:01:34.339Z,1.60
2019-01-19T21:04:06.302Z,1.59
2019-01-19T21:06:38.040Z,1.56
2019-01-19T21:09:12.060Z,1.55
2019-01-19T21:11:43.806Z,1.54
2019-01-19T21:14:16.010Z,1.55
2019-01-19T21:16:49.126Z,1.53
2019-01-19T21:19:21.018Z,1.52
2019-01-19T21:21:52.915Z,1.53
2019-01-19T21:24:24.669Z,1.51
2019-01-19T21:26:56.422Z,1.51
2019-01-19T21:29:28.710Z,1.48
2019-01-19T21:32:00.564Z,1.48
2019-01-19T21:34:32.269Z,1.46
2019-01-19T21:37:04.094Z,1.45
2019-01-19T21:39:35.858Z,1.41
2019-01-19T21:42:07.610Z,1.43
2019-01-19T21:44:39.764Z,1.43
2019-01-19T21:47:11.542Z,1.43
2019-01-19T21:49:43.331Z,1.41
2019-01-19T21:52:15.231Z,1.39
2019-01-19T21:54:47.121Z,1.40
2019-01-19T21:57:18.838Z,1.38
2019-01-19T21:59:51.841Z,1.36
2019-01-19T22:02:23.581Z,1.34
2019-01-19T22:04:55.337Z,1.32
2019-01-19T22:07:27.077Z,1.32
2019-01-19T22:09:59.114Z,1.31
2019-01-19T22:12:32.664Z,1.31
2019-01-19T22:15:05.830Z,1.30
2019-01-19T22:17:39.818Z,1.27
2019-01-19T22:20:13.086Z,1.24
2019-01-19T22:22:44.780Z,1.24
2019-01-19T22:25:16.639Z,1.24
2019-01-19T22:27:49.660Z,1.22
2019-01-19T22:30:24.197Z,1.22
2019-01-19T22:32:57.544Z,1.20
2019-01-19T22:35:30.439Z,1.21
2019-01-19T22:38:03.226Z,1.20
2019-01-19T22:40:35.036Z,1.22
2019-01-19T22:43:10.412Z,1.21
2019-01-19T22:45:42.249Z,1.21
2019-01-19T22:48:14.383Z,1.20
2019-01-19T22:50:46.127Z,1.20
2019-01-19T22:53:17.847Z,1.20
2019-01-19T22:55:50.098Z,1.22
2019-01-19T22:58:22.650Z,1.22
2019-01-19T23:01:24.937Z,1.21
2019-01-19T23:03:57.194Z,1.19
2019-01-19T23:06:30.281Z,1.17
2019-01-19T23:09:02.064Z,1.16
2019-01-19T23:11:34.172Z,1.13
2019-01-19T23:14:08.469Z,1.12
2019-01-19T23:16:40.893Z,1.10
2019-01-19T23:19:12.951Z,1.08
2019-01-19T23:21:44.626Z,1.06
2019-01-19T23:24:16.299Z,1.03
2019-01-19T23:26:48.339Z,1.02
2019-01-19T23:29:19.995Z,1.01
2019-01-19T23:31:51.672Z,1.01
2019-01-19T23:34:23.705Z,0.99
2019-01-19T23:36:55.332Z,1.00
2019-01-19T23:39:27.012Z,0.98
2019-01-19T23:41:58.634Z,0.99
2019-01-19T23:44:31.100Z,0.97
2019-01-19T23:47:02.788Z,0.97
2019-01-19T23:49:34.823Z,0.96
2019-01-19T23:52:06.931Z,0.95
2019-01-19T23:54:38.577Z,0.92
2019-01-19T23:57:10.296Z,0.91
2019-01-19T23:59:41.963Z,0.89
